Time;durP1;ratioP1;P1;durP2;ratioP2;P2;SDS_P1;SDS_P2;PMS_P1;PMS_P2;Temp;Humidity;BMP_temperature;BMP_pressure;BME280_temperature;BME280_humidity;BME280_pressure;Samples;Min_cycle;Max_cycle;Signal;HPM_P1;HPM_P2
2021/11/09 00:00:27;;;;;;;0.20;0.20;;;;;;;7.04;100.00;101791.34;5061426;28;20056;-79
2021/11/09 00:02:55;;;;;;;0.20;0.20;;;;;;;7.10;100.00;101796.69;5058591;28;20048;-79
2021/11/09 00:05:28;;;;;;;0.30;0.30;;;;;;;7.12;100.00;101797.28;5056593;28;20056;-78
2021/11/09 00:08:02;;;;;;;0.20;0.20;;;;;;;7.11;100.00;101800.22;5060454;28;20032;-79
2021/11/09 00:10:35;;;;;;;0.30;0.30;;;;;;;7.10;100.00;101804.81;5055336;28;20151;-80
2021/11/09 00:13:09;;;;;;;0.30;0.30;;;;;;;7.06;100.00;101800.91;5059329;28;20061;-79
2021/11/09 00:15:42;;;;;;;0.30;0.30;;;;;;;7.11;100.00;101809.19;5057942;28;20044;-79
2021/11/09 00:18:16;;;;;;;0.30;0.30;;;;;;;7.09;100.00;101805.84;5059097;28;20066;-78
2021/11/09 00:20:51;;;;;;;0.43;0.43;;;;;;;7.07;100.00;101799.00;5056088;28;20041;-79
2021/11/09 00:23:19;;;;;;;0.30;0.30;;;;;;;7.12;100.00;101808.09;5057191;28;20063;-79
2021/11/09 00:25:47;;;;;;;0.30;0.30;;;;;;;7.13;100.00;101804.34;5058701;28;20052;-78
2021/11/09 00:28:21;;;;;;;0.30;0.30;;;;;;;7.08;100.00;101795.25;5058713;28;20049;-78
2021/11/09 00:30:54;;;;;;;0.20;0.20;;;;;;;7.23;100.00;101803.78;5061373;28;20044;-79
2021/11/09 00:33:29;;;;;;;0.40;0.30;;;;;;;7.15;100.00;101794.13;5058909;28;20056;-80
2021/11/09 00:36:06;;;;;;;0.30;0.30;;;;;;;7.12;100.00;101799.16;5057198;28;20504;-80
2021/11/09 00:38:40;;;;;;;0.30;0.30;;;;;;;7.06;100.00;101794.69;5057438;28;20512;-78
2021/11/09 00:41:08;;;;;;;0.30;0.30;;;;;;;7.08;100.00;101792.56;5056290;28;20056;-78
2021/11/09 00:43:37;;;;;;;0.30;0.30;;;;;;;7.05;100.00;101793.03;5054409;28;20048;-79
2021/11/09 00:46:10;;;;;;;0.40;0.40;;;;;;;7.03;100.00;101792.41;5058621;28;20681;-79
2021/11/09 00:48:44;;;;;;;0.30;0.30;;;;;;;7.03;100.00;101793.25;5055594;28;20053;-78
2021/11/09 00:51:19;;;;;;;0.20;0.20;;;;;;;7.01;100.00;101806.16;5059051;28;20048;-78
2021/11/09 00:53:48;;;;;;;0.30;0.30;;;;;;;7.03;100.00;101805.94;5054813;28;20052;-78
2021/11/09 00:56:16;;;;;;;0.30;0.30;;;;;;;7.03;100.00;101803.22;5059052;28;20049;-79
2021/11/09 00:58:44;;;;;;;0.22;0.22;;;;;;;7.00;100.00;101796.38;5056281;28;20056;-80
2021/11/09 01:01:12;;;;;;;0.30;0.30;;;;;;;7.01;100.00;101797.25;5056823;28;20049;-78
2021/11/09 01:03:46;;;;;;;0.20;0.20;;;;;;;6.97;100.00;101795.00;5056324;28;20382;-79
2021/11/09 01:06:21;;;;;;;0.30;0.30;;;;;;;6.93;100.00;101796.50;5056316;28;20048;-78
2021/11/09 01:08:50;;;;;;;0.40;0.40;;;;;;;6.94;100.00;101784.59;5059517;28;20048;-78
2021/11/09 01:11:19;;;;;;;0.30;0.30;;;;;;;6.95;100.00;101785.44;5064515;28;20397;-78
2021/11/09 01:13:52;;;;;;;0.30;0.30;;;;;;;6.93;100.00;101785.69;5055321;28;20056;-79
2021/11/09 01:16:21;;;;;;;0.30;0.30;;;;;;;6.95;100.00;101788.16;5058381;28;20087;-79
2021/11/09 01:18:57;;;;;;;0.30;0.30;;;;;;;6.94;100.00;101784.59;5059172;28;20045;-79
2021/11/09 01:21:31;;;;;;;0.30;0.30;;;;;;;6.90;100.00;101769.88;5056801;28;20057;-79
2021/11/09 01:24:06;;;;;;;0.30;0.30;;;;;;;6.97;100.00;101783.31;5060046;28;20043;-79
2021/11/09 01:26:39;;;;;;;0.30;0.30;;;;;;;6.88;100.00;101782.81;5058183;28;20048;-78
2021/11/09 01:29:14;;;;;;;0.20;0.20;;;;;;;6.97;100.00;101796.84;5055645;28;20390;-77
2021/11/09 01:31:48;;;;;;;0.22;0.22;;;;;;;6.95;100.00;101799.78;5060026;28;20041;-80
2021/11/09 01:34:22;;;;;;;0.30;0.30;;;;;;;6.92;100.00;101794.03;5055088;28;20064;-79
2021/11/09 01:36:57;;;;;;;0.20;0.20;;;;;;;6.87;100.00;101791.97;5058058;28;20051;-80
2021/11/09 01:39:30;;;;;;;0.28;0.28;;;;;;;6.90;100.00;101791.53;5054819;28;20060;-78
2021/11/09 01:42:04;;;;;;;0.30;0.30;;;;;;;6.85;100.00;101791.41;5060104;28;20059;-80
2021/11/09 01:44:37;;;;;;;0.30;0.30;;;;;;;6.86;100.00;101789.50;5057977;28;20428;-79
2021/11/09 01:47:10;;;;;;;0.30;0.30;;;;;;;6.81;100.00;101793.72;5056309;28;20037;-79
2021/11/09 01:49:39;;;;;;;0.30;0.30;;;;;;;6.72;100.00;101788.84;5058155;28;20059;-79
2021/11/09 01:52:13;;;;;;;0.30;0.30;;;;;;;6.76;100.00;101798.97;5058321;28;20380;-79
2021/11/09 01:54:42;;;;;;;0.30;0.30;;;;;;;6.70;100.00;101796.34;5056860;28;20053;-79
2021/11/09 01:57:15;;;;;;;0.30;0.30;;;;;;;6.74;100.00;101797.56;5058665;28;20048;-80
2021/11/09 01:59:48;;;;;;;0.30;0.30;;;;;;;6.68;100.00;101798.47;5061636;28;20540;-78
2021/11/09 02:02:22;;;;;;;0.30;0.30;;;;;;;6.66;100.00;101806.81;5061354;28;20045;-78
2021/11/09 02:04:56;;;;;;;0.13;0.13;;;;;;;6.67;100.00;101805.78;5066062;28;20055;-79
2021/11/09 02:07:30;;;;;;;0.22;0.22;;;;;;;6.67;100.00;101804.94;5066814;28;20045;-78
2021/11/09 02:10:04;;;;;;;0.20;0.20;;;;;;;6.58;100.00;101801.69;5062244;28;20056;-80
2021/11/09 02:12:37;;;;;;;0.30;0.30;;;;;;;6.46;100.00;101805.16;5075400;28;20048;-80
2021/11/09 02:15:12;;;;;;;0.30;0.30;;;;;;;6.40;100.00;101802.53;5064246;28;20048;-78
2021/11/09 02:17:47;;;;;;;0.45;0.30;;;;;;;6.38;100.00;101801.91;5060185;28;20408;-78
2021/11/09 02:20:23;;;;;;;0.20;0.20;;;;;;;6.34;100.00;101798.84;5061166;28;20056;-79
2021/11/09 02:22:59;;;;;;;0.20;0.20;;;;;;;6.38;100.00;101800.03;5059984;28;20290;-81
2021/11/09 02:25:34;;;;;;;0.22;0.22;;;;;;;6.35;100.00;101799.66;5061428;28;20049;-79
2021/11/09 02:28:07;;;;;;;0.30;0.30;;;;;;;6.28;100.00;101797.00;5082296;28;20045;-78
2021/11/09 02:30:41;;;;;;;0.32;0.32;;;;;;;6.21;100.00;101801.66;5061175;28;20053;-78
2021/11/09 02:33:16;;;;;;;0.30;0.30;;;;;;;6.19;100.00;101810.00;5063008;28;20045;-78
2021/11/09 02:35:49;;;;;;;0.40;0.40;;;;;;;6.08;100.00;101795.34;5059149;28;20105;-78
2021/11/09 02:38:24;;;;;;;0.30;0.30;;;;;;;6.10;100.00;101805.91;5061944;28;20041;-80
2021/11/09 02:40:57;;;;;;;0.30;0.30;;;;;;;6.07;100.00;101812.59;5063595;28;20071;-79
2021/11/09 02:43:31;;;;;;;0.30;0.30;;;;;;;6.05;100.00;101812.00;5060932;28;20044;-78
2021/11/09 02:49:03;;;;;;;0.30;0.30;;;;;;;5.94;100.00;101812.69;5064224;28;20045;-79
2021/11/09 02:51:40;;;;;;;0.30;0.30;;;;;;;5.88;100.00;101813.56;5064747;28;20044;-79
2021/11/09 02:54:18;;;;;;;0.30;0.30;;;;;;;5.91;100.00;101819.38;5058752;28;20059;-78
2021/11/09 02:56:56;;;;;;;0.28;0.28;;;;;;;5.99;100.00;101820.97;5060105;28;20060;-78
2021/11/09 02:59:42;;;;;;;0.30;0.30;;;;;;;6.01;100.00;101835.13;5065054;28;20060;-78
2021/11/09 03:02:30;;;;;;;0.30;0.30;;;;;;;6.01;100.00;101829.72;5062887;28;20047;-79
2021/11/09 03:05:14;;;;;;;0.30;0.30;;;;;;;6.04;100.00;101823.84;5058710;28;20044;-79
2021/11/09 03:07:50;;;;;;;0.30;0.30;;;;;;;6.04;100.00;101829.25;5063582;28;20052;-79
2021/11/09 03:10:27;;;;;;;0.30;0.30;;;;;;;6.03;100.00;101822.19;5065085;28;20404;-79
2021/11/09 03:13:01;;;;;;;0.30;0.30;;;;;;;6.05;100.00;101824.66;5062789;28;20045;-78
2021/11/09 03:15:35;;;;;;;0.20;0.20;;;;;;;6.03;100.00;101824.91;5059901;28;20045;-78
2021/11/09 03:18:11;;;;;;;0.30;0.30;;;;;;;6.06;100.00;101837.13;5064197;28;20412;-79
2021/11/09 03:20:49;;;;;;;0.25;0.25;;;;;;;6.04;100.00;101847.34;5060855;28;20053;-77
2021/11/09 03:40:28;;;;;;;0.20;0.20;;;;;;;6.15;100.00;101867.44;5057425;28;20059;-79
2021/11/09 03:45:53;;;;;;;0.20;0.20;;;;;;;6.18;100.00;101862.41;5058759;28;20045;-79
2021/11/09 03:48:26;;;;;;;0.30;0.30;;;;;;;6.15;100.00;101865.56;5062126;28;20057;-79
2021/11/09 03:51:00;;;;;;;0.20;0.20;;;;;;;6.13;100.00;101868.47;5058857;28;20060;-78
2021/11/09 03:53:34;;;;;;;0.20;0.20;;;;;;;6.19;100.00;101874.06;5061265;28;20515;-79
2021/11/09 03:56:15;;;;;;;0.30;0.30;;;;;;;6.19;100.00;101876.75;5055426;28;20068;-80
2021/11/09 03:58:51;;;;;;;0.30;0.30;;;;;;;6.23;100.00;101883.38;5070667;28;20044;-78
2021/11/09 04:01:29;;;;;;;0.22;0.22;;;;;;;6.17;100.00;101876.97;5069789;28;20408;-79
2021/11/09 04:04:20;;;;;;;0.30;0.30;;;;;;;6.11;100.00;101859.75;5071645;28;20049;-79
2021/11/09 04:07:00;;;;;;;0.30;0.30;;;;;;;6.16;100.00;101875.31;5064072;28;20049;-78
2021/11/09 04:12:37;;;;;;;0.28;0.28;;;;;;;6.19;100.00;101869.47;5062812;28;20048;-79
2021/11/09 04:18:21;;;;;;;0.30;0.30;;;;;;;6.20;100.00;101870.28;5063217;28;20060;-78
2021/11/09 04:21:03;;;;;;;0.25;0.25;;;;;;;6.22;100.00;101877.13;5066153;28;20040;-79
2021/11/09 04:29:31;;;;;;;0.20;0.20;;;;;;;6.21;100.00;101872.75;5065406;28;20044;-79
2021/11/09 04:50:21;;;;;;;0.28;0.28;;;;;;;6.22;100.00;101879.84;5055051;28;20055;-79
2021/11/09 04:53:14;;;;;;;0.30;0.30;;;;;;;6.22;100.00;101873.63;5115748;28;20044;-79
2021/11/09 05:01:49;;;;;;;0.30;0.30;;;;;;;6.26;100.00;101874.81;5117837;27;20051;-79
2021/11/09 05:10:03;;;;;;;0.30;0.30;;;;;;;6.21;100.00;101880.06;5117154;28;20044;-79
2021/11/09 05:12:36;;;;;;;0.32;0.30;;;;;;;6.23;100.00;101886.91;5113946;28;20054;-79
2021/11/09 05:15:05;;;;;;;0.40;0.40;;;;;;;6.24;100.00;101893.97;5117927;28;20386;-79
2021/11/09 05:17:40;;;;;;;0.30;0.30;;;;;;;6.26;100.00;101908.09;5121172;28;20047;-80
2021/11/09 05:20:09;;;;;;;0.28;0.28;;;;;;;6.32;100.00;101898.25;5122057;27;20048;-80
2021/11/09 05:22:44;;;;;;;0.30;0.30;;;;;;;6.30;100.00;101908.47;5130387;27;20051;-79
2021/11/09 05:25:17;;;;;;;0.30;0.30;;;;;;;6.33;100.00;101920.72;5132173;27;20062;-79
2021/11/09 05:27:51;;;;;;;0.30;0.30;;;;;;;6.28;100.00;101916.81;5113764;28;20529;-80
2021/11/09 05:30:25;;;;;;;0.30;0.30;;;;;;;6.28;100.00;101915.97;5116892;28;20043;-79
2021/11/09 05:32:59;;;;;;;0.35;0.35;;;;;;;6.34;100.00;101927.78;5112648;27;20069;-80
2021/11/09 05:35:28;;;;;;;0.30;0.30;;;;;;;6.27;100.00;101911.59;5116010;27;20051;-79
2021/11/09 05:37:58;;;;;;;0.25;0.25;;;;;;;6.30;100.00;101922.00;5101750;28;20050;-80
2021/11/09 05:40:34;;;;;;;0.30;0.30;;;;;;;6.33;100.00;101918.03;5100763;27;20047;-79
2021/11/09 05:43:04;;;;;;;0.20;0.20;;;;;;;6.39;100.00;101919.84;5106383;28;20043;-79
2021/11/09 05:45:37;;;;;;;0.30;0.30;;;;;;;6.39;100.00;101922.53;5112403;28;20058;-81
2021/11/09 05:48:06;;;;;;;0.30;0.30;;;;;;;6.36;100.00;101923.81;5108594;27;20052;-79
2021/11/09 05:50:40;;;;;;;0.30;0.30;;;;;;;6.35;100.00;101918.63;5105635;27;20058;-79
2021/11/09 05:53:08;;;;;;;0.20;0.20;;;;;;;6.37;100.00;101927.34;5102291;28;20051;-80
2021/11/09 05:55:41;;;;;;;0.30;0.30;;;;;;;6.33;100.00;101924.25;5098588;28;20758;-81
2021/11/09 05:58:09;;;;;;;0.30;0.30;;;;;;;6.35;100.00;101937.56;5095632;28;20050;-80
2021/11/09 06:00:43;;;;;;;0.30;0.30;;;;;;;6.35;100.00;101942.97;5085666;28;20051;-82
2021/11/09 06:03:22;;;;;;;0.30;0.30;;;;;;;6.40;100.00;101940.44;5087484;28;20494;-81
2021/11/09 06:05:56;;;;;;;0.20;0.20;;;;;;;6.44;100.00;101938.94;5081808;28;20055;-80
2021/11/09 06:08:29;;;;;;;0.20;0.20;;;;;;;6.39;100.00;101952.28;5085839;28;20070;-81
2021/11/09 06:10:58;;;;;;;0.30;0.30;;;;;;;6.35;100.00;101949.19;5095240;28;20062;-82
2021/11/09 06:13:31;;;;;;;0.30;0.30;;;;;;;6.45;100.00;101963.06;5094908;28;20054;-81
2021/11/09 06:15:59;;;;;;;0.20;0.20;;;;;;;6.44;100.00;101961.38;5090916;28;21606;-80
2021/11/09 06:18:35;;;;;;;0.30;0.30;;;;;;;6.46;100.00;101963.88;5099128;28;20510;-81
2021/11/09 06:21:08;;;;;;;0.30;0.30;;;;;;;6.52;100.00;101972.97;5082231;28;20070;-79
2021/11/09 06:23:42;;;;;;;0.22;0.22;;;;;;;6.35;100.00;101961.88;5080066;28;21068;-79
2021/11/09 06:26:15;;;;;;;0.40;0.40;;;;;;;6.40;100.00;101984.50;5085336;28;20062;-80
2021/11/09 06:28:49;;;;;;;0.30;0.30;;;;;;;6.46;100.00;101991.75;5078927;28;20062;-81
2021/11/09 06:31:22;;;;;;;0.30;0.30;;;;;;;6.46;100.00;101982.78;5085972;28;20060;-81
2021/11/09 06:33:57;;;;;;;0.30;0.30;;;;;;;6.43;100.00;101992.16;5091498;28;20071;-80
2021/11/09 06:36:31;;;;;;;0.30;0.30;;;;;;;6.44;100.00;101993.03;5079107;28;20048;-81
2021/11/09 06:39:00;;;;;;;0.30;0.30;;;;;;;6.44;100.00;101995.72;5085214;28;20511;-81
2021/11/09 06:41:29;;;;;;;0.28;0.28;;;;;;;6.42;100.00;102009.47;5091930;28;20051;-80
2021/11/09 06:44:02;;;;;;;0.30;0.30;;;;;;;6.41;100.00;102004.28;5080120;28;20048;-80
2021/11/09 06:46:36;;;;;;;0.10;0.10;;;;;;;6.52;100.00;101995.44;5082927;28;20051;-79
2021/11/09 06:49:11;;;;;;;0.25;0.25;;;;;;;6.50;100.00;102008.34;5084175;27;21042;-80
2021/11/09 06:51:39;;;;;;;0.30;0.30;;;;;;;6.44;100.00;102009.25;5077817;28;20689;-80
2021/11/09 06:54:08;;;;;;;0.20;0.20;;;;;;;6.42;100.00;102014.88;5080204;27;20890;-81
2021/11/09 06:56:36;;;;;;;0.30;0.30;;;;;;;6.49;100.00;102019.41;5087468;28;20059;-79
2021/11/09 06:59:11;;;;;;;0.30;0.30;;;;;;;6.50;100.00;102021.06;5084885;28;20059;-81
2021/11/09 07:01:46;;;;;;;0.30;0.30;;;;;;;6.53;100.00;102021.47;5085207;28;20043;-79
2021/11/09 07:04:21;;;;;;;0.20;0.20;;;;;;;6.52;100.00;102022.50;5085551;28;20044;-80
2021/11/09 07:06:54;;;;;;;0.30;0.30;;;;;;;6.54;100.00;102028.50;5079712;28;20449;-80
2021/11/09 07:09:28;;;;;;;0.30;0.30;;;;;;;6.54;100.00;102027.69;5092127;28;20047;-80
2021/11/09 07:11:56;;;;;;;0.28;0.28;;;;;;;6.46;100.00;102021.50;5085079;28;20063;-79
2021/11/09 07:14:31;;;;;;;0.22;0.22;;;;;;;6.51;100.00;102014.59;5087734;28;20360;-79
2021/11/09 07:17:06;;;;;;;0.30;0.30;;;;;;;6.53;100.00;102021.47;5086722;28;20043;-80
2021/11/09 07:19:46;;;;;;;0.20;0.20;;;;;;;6.58;100.00;102024.31;5087975;28;20068;-80
2021/11/09 07:22:21;;;;;;;0.30;0.30;;;;;;;6.58;100.00;102024.31;5082336;28;20812;-81
2021/11/09 07:24:56;;;;;;;0.30;0.30;;;;;;;6.57;100.00;102025.38;5086183;28;21674;-79
2021/11/09 07:27:30;;;;;;;0.30;0.30;;;;;;;6.60;100.00;102026.78;5086547;28;20063;-81
2021/11/09 07:30:04;;;;;;;0.30;0.30;;;;;;;6.58;100.00;102023.50;5086228;27;20530;-80
2021/11/09 07:32:32;;;;;;;0.30;0.30;;;;;;;6.59;100.00;102031.38;5085721;28;20513;-80
2021/11/09 07:35:10;;;;;;;0.40;0.40;;;;;;;6.54;100.00;102030.38;5083802;28;20036;-81
2021/11/09 07:37:43;;;;;;;;;;;;;;;6.56;100.00;102029.13;5079764;28;20066;-80
2021/11/09 07:40:13;;;;;;;0.30;0.30;;;;;;;6.51;100.00;102033.53;5077493;28;19934;-81
2021/11/09 07:42:47;;;;;;;0.20;0.20;;;;;;;6.58;100.00;102035.13;5081727;28;20439;-78
2021/11/09 07:45:22;;;;;;;0.20;0.20;;;;;;;6.56;100.00;102041.81;5088018;28;20435;-80
2021/11/09 07:47:58;;;;;;;0.20;0.20;;;;;;;6.62;100.00;102033.66;5094028;28;20071;-80
2021/11/09 07:50:33;;;;;;;0.30;0.30;;;;;;;6.62;100.00;102035.53;5084909;28;20064;-80
2021/11/09 07:53:08;;;;;;;0.30;0.30;;;;;;;6.65;100.00;102032.38;5083317;28;20392;-80
2021/11/09 07:55:46;;;;;;;0.20;0.20;;;;;;;6.68;100.00;102023.00;5081577;28;20047;-82
2021/11/09 07:58:30;;;;;;;0.30;0.30;;;;;;;6.72;100.00;102033.16;5083638;28;20051;-81
2021/11/09 08:01:07;;;;;;;0.28;0.28;;;;;;;6.71;100.00;102023.41;5085755;28;20055;-79
2021/11/09 08:03:45;;;;;;;0.20;0.20;;;;;;;6.61;100.00;102031.16;5087582;28;20617;-81
2021/11/09 08:06:25;;;;;;;0.20;0.20;;;;;;;6.47;100.00;102027.72;5081623;28;20048;-80
2021/11/09 08:09:08;;;;;;;0.20;0.20;;;;;;;6.42;100.00;102033.81;5096747;27;20063;-80
2021/11/09 08:11:42;;;;;;;0.30;0.30;;;;;;;6.49;100.00;102043.72;5082882;28;20105;-81
2021/11/09 08:14:16;;;;;;;0.30;0.30;;;;;;;6.49;100.00;102046.44;5081481;28;20522;-80
2021/11/09 08:16:50;;;;;;;0.30;0.30;;;;;;;6.45;100.00;102036.06;5081965;28;20058;-80
2021/11/09 08:19:24;;;;;;;0.20;0.20;;;;;;;6.48;100.00;102040.22;5087178;28;20656;-80
2021/11/09 08:21:59;;;;;;;0.30;0.30;;;;;;;6.58;100.00;102054.06;5080299;28;20055;-79
2021/11/09 08:24:33;;;;;;;0.30;0.30;;;;;;;6.51;100.00;102050.59;5076775;28;20058;-80
2021/11/09 08:27:04;;;;;;;0.20;0.20;;;;;;;6.51;100.00;102045.19;5078312;28;20062;-81
2021/11/09 08:29:38;;;;;;;0.30;0.30;;;;;;;6.57;100.00;102051.59;5095981;27;20488;-80
2021/11/09 08:32:11;;;;;;;0.28;0.28;;;;;;;6.59;100.00;102046.78;5081324;28;20316;-81
2021/11/09 08:34:45;;;;;;;0.30;0.30;;;;;;;6.64;100.00;102057.78;5080063;28;20055;-80
2021/11/09 08:37:15;;;;;;;0.30;0.30;;;;;;;6.73;100.00;102064.56;5082075;28;20035;-80
2021/11/09 08:39:48;;;;;;;0.20;0.20;;;;;;;6.75;100.00;102059.78;5083464;28;21358;-79
2021/11/09 08:42:25;;;;;;;0.20;0.20;;;;;;;6.73;100.00;102061.88;5078490;28;20052;-81
2021/11/09 08:45:05;;;;;;;0.30;0.30;;;;;;;6.77;100.00;102046.84;5083985;28;20055;-80
2021/11/09 08:47:44;;;;;;;0.30;0.30;;;;;;;6.81;100.00;102063.50;5088044;28;20056;-81
2021/11/09 08:50:13;;;;;;;0.20;0.20;;;;;;;6.72;100.00;102043.16;5082512;28;20352;-81
2021/11/09 08:52:48;;;;;;;0.30;0.30;;;;;;;6.89;100.00;102070.47;5094547;28;20058;-81
2021/11/09 08:55:33;;;;;;;0.20;0.20;;;;;;;6.84;100.00;102049.50;5088479;28;20653;-79
2021/11/09 09:06:36;;;;;;;0.30;0.30;;;;;;;7.07;100.00;102075.13;5082977;28;21918;-81
2021/11/09 09:09:11;;;;;;;0.20;0.20;;;;;;;7.12;100.00;102069.88;5076373;28;20062;-80
2021/11/09 09:11:45;;;;;;;0.20;0.20;;;;;;;7.07;100.00;102067.00;5075396;28;20681;-80
2021/11/09 09:14:15;;;;;;;0.20;0.20;;;;;;;7.08;100.00;102082.19;5076688;28;20047;-79
2021/11/09 09:16:48;;;;;;;0.20;0.20;;;;;;;7.08;100.00;102080.31;5078205;28;20069;-80
2021/11/09 09:19:26;;;;;;;0.20;0.20;;;;;;;7.11;100.00;102076.34;5082907;28;20059;-80
2021/11/09 09:22:06;;;;;;;0.28;0.28;;;;;;;7.16;100.00;102065.66;5083807;28;20475;-80
2021/11/09 09:27:49;;;;;;;0.30;0.30;;;;;;;7.31;100.00;102081.56;5084457;28;20411;-82
2021/11/09 09:30:40;;;;;;;0.20;0.20;;;;;;;7.29;100.00;102078.25;5078798;27;20059;-79
2021/11/09 09:53:43;;;;;;;0.20;0.20;;;;;;;7.74;100.00;102075.28;5091543;28;20407;-81
2021/11/09 09:56:15;;;;;;;0.20;0.20;;;;;;;7.80;100.00;102087.09;5090490;28;20051;-80
2021/11/09 09:58:50;;;;;;;0.30;0.30;;;;;;;7.86;100.00;102083.47;5084212;28;20055;-80
2021/11/09 10:01:23;;;;;;;0.30;0.30;;;;;;;7.77;100.00;102087.53;5093510;28;20047;-82
2021/11/09 10:03:57;;;;;;;0.30;0.30;;;;;;;7.75;100.00;102068.81;5085142;28;20051;-81
2021/11/09 10:06:46;;;;;;;0.30;0.30;;;;;;;7.87;100.00;102085.16;5084427;28;20371;-81
2021/11/09 10:09:31;;;;;;;0.30;0.30;;;;;;;7.93;100.00;102083.41;5078818;28;20640;-80
2021/11/09 10:12:28;;;;;;;0.30;0.30;;;;;;;7.99;100.00;102079.78;5079868;28;20051;-80
2021/11/09 10:15:11;;;;;;;0.30;0.30;;;;;;;7.98;100.00;102076.25;5087588;28;20051;-80
2021/11/09 10:17:47;;;;;;;0.30;0.30;;;;;;;8.11;100.00;102064.38;5083702;28;20537;-80
2021/11/09 10:20:23;;;;;;;0.30;0.30;;;;;;;8.09;100.00;102065.66;5081938;28;20121;-80
2021/11/09 10:22:59;;;;;;;0.20;0.20;;;;;;;8.20;100.00;102070.31;5080676;28;20082;-80
2021/11/09 10:25:29;;;;;;;0.30;0.30;;;;;;;8.23;100.00;102075.28;5082734;28;20075;-79
2021/11/09 10:28:04;;;;;;;0.30;0.30;;;;;;;8.28;100.00;102075.41;5089471;28;20075;-80
2021/11/09 10:30:41;;;;;;;0.30;0.30;;;;;;;8.27;100.00;102075.66;5086160;27;20056;-81
2021/11/09 10:33:19;;;;;;;0.25;0.25;;;;;;;8.38;100.00;102072.16;5086269;28;20058;-81
2021/11/09 10:35:53;;;;;;;0.20;0.20;;;;;;;8.40;100.00;102072.75;5089112;28;20054;-80
2021/11/09 10:38:31;;;;;;;0.30;0.30;;;;;;;8.38;100.00;102072.16;5085006;27;20055;-87
2021/11/09 10:41:00;;;;;;;0.30;0.30;;;;;;;8.41;100.00;102068.16;5081331;28;20624;-79
2021/11/09 10:43:33;;;;;;;0.30;0.30;;;;;;;8.46;100.00;102073.75;5096426;28;20060;-79
2021/11/09 10:46:08;;;;;;;0.30;0.30;;;;;;;8.41;100.00;102065.44;5088432;28;20056;-81
2021/11/09 10:48:44;;;;;;;0.20;0.20;;;;;;;8.53;100.00;102068.22;5087999;28;20070;-80
2021/11/09 10:51:17;;;;;;;0.30;0.30;;;;;;;8.42;100.00;102058.97;5081123;28;20493;-81
2021/11/09 10:53:50;;;;;;;0.28;0.28;;;;;;;8.47;100.00;102072.69;5089734;28;20063;-80
2021/11/09 10:56:33;;;;;;;;;;;;;;;8.47;100.00;102069.97;5087653;28;20459;-80
2021/11/09 10:59:14;;;;;;;0.30;0.30;;;;;;;8.51;100.00;102069.28;5095614;28;19924;-78
2021/11/09 11:04:40;;;;;;;0.30;0.30;;;;;;;8.58;100.00;102066.47;5094137;28;20046;-80
2021/11/09 11:07:15;;;;;;;0.25;0.25;;;;;;;8.53;100.00;102076.38;5091974;28;20052;-81
2021/11/09 11:09:59;;;;;;;0.30;0.30;;;;;;;8.55;100.00;102063.38;5092093;28;20428;-80
2021/11/09 11:12:32;;;;;;;0.20;0.20;;;;;;;8.58;100.00;102066.47;5088900;28;21061;-81
2021/11/09 11:15:10;;;;;;;0.28;0.28;;;;;;;8.64;100.00;102065.53;5090363;28;20484;-81
2021/11/09 11:17:45;;;;;;;;;;;;;;;8.59;100.00;102064.56;5090498;28;20059;-80
2021/11/09 11:20:18;;;;;;;0.25;0.25;;;;;;;8.56;100.00;102062.31;5089298;28;19928;-79
2021/11/09 11:22:53;;;;;;;0.20;0.20;;;;;;;8.65;100.00;102064.47;5092864;28;20051;-80
2021/11/09 11:25:26;;;;;;;0.30;0.30;;;;;;;8.65;100.00;102067.19;5088214;28;20500;-78
2021/11/09 11:27:59;;;;;;;0.20;0.20;;;;;;;8.61;100.00;102066.00;5090753;28;20063;-80
2021/11/09 11:30:33;;;;;;;0.22;0.22;;;;;;;8.74;100.00;102058.72;5092444;28;20062;-80
2021/11/09 11:33:07;;;;;;;0.30;0.30;;;;;;;8.65;100.00;102053.63;5092474;27;20055;-81
2021/11/09 11:35:36;;;;;;;0.20;0.20;;;;;;;8.73;100.00;102054.31;5095783;28;20056;-80
2021/11/09 11:38:05;;;;;;;0.30;0.30;;;;;;;8.71;100.00;102057.28;5093214;28;20502;-80
2021/11/09 11:40:34;;;;;;;0.20;0.20;;;;;;;8.71;100.00;102061.88;5093046;28;20063;-79
2021/11/09 11:43:08;;;;;;;0.30;0.30;;;;;;;8.72;100.00;102056.22;5090687;28;20055;-80
2021/11/09 11:45:46;;;;;;;0.20;0.20;;;;;;;8.74;100.00;102051.41;5094343;28;20063;-79
2021/11/09 11:48:20;;;;;;;0.30;0.30;;;;;;;8.77;100.00;102045.50;5096374;28;20411;-79
2021/11/09 11:50:53;;;;;;;0.20;0.20;;;;;;;8.76;100.00;102040.31;5089687;28;20074;-80
2021/11/09 11:53:40;;;;;;;0.20;0.20;;;;;;;8.81;100.00;102041.25;5089968;28;21193;-79
2021/11/09 11:56:12;;;;;;;0.25;0.25;;;;;;;8.89;100.00;102040.06;5092062;27;20304;-80
2021/11/09 11:58:46;;;;;;;0.32;0.32;;;;;;;9.00;100.00;102030.28;5090206;28;20460;-79
2021/11/09 12:01:41;;;;;;;0.30;0.30;;;;;;;8.98;100.00;102040.56;5089847;28;20589;-81
2021/11/09 12:04:52;;;;;;;0.20;0.20;;;;;;;8.87;100.00;102035.97;5086765;28;20059;-80
2021/11/09 12:07:53;;;;;;;0.20;0.20;;;;;;;8.98;100.00;102029.72;5087119;28;20463;-81
2021/11/09 12:10:41;;;;;;;0.20;0.20;;;;;;;9.05;100.00;102026.88;5089845;28;20048;-81
2021/11/09 12:13:10;;;;;;;0.40;0.40;;;;;;;8.97;100.00;102019.91;5090820;28;20475;-79
2021/11/09 12:15:47;;;;;;;0.28;0.28;;;;;;;9.05;100.00;102030.41;5095243;28;20040;-80
2021/11/09 12:18:42;;;;;;;0.28;0.28;;;;;;;9.09;100.00;102026.16;5089076;28;20051;-80
2021/11/09 12:21:39;;;;;;;0.30;0.30;;;;;;;9.09;100.00;102026.16;5116813;27;20044;-80
2021/11/09 12:24:20;;;;;;;0.20;0.20;;;;;;;9.10;100.00;102011.53;5091171;28;20054;-80
2021/11/09 12:26:58;;;;;;;0.28;0.28;;;;;;;9.08;100.00;102016.34;5095979;28;20415;-81
2021/11/09 12:29:44;;;;;;;0.30;0.30;;;;;;;9.03;100.00;102010.78;5087605;27;20067;-80
2021/11/09 12:32:30;;;;;;;0.25;0.25;;;;;;;9.14;100.00;102015.41;5092555;28;20066;-79
2021/11/09 12:35:20;;;;;;;0.20;0.20;;;;;;;9.07;100.00;102017.41;5092861;28;20450;-81
2021/11/09 12:38:14;;;;;;;0.20;0.20;;;;;;;9.10;100.00;102026.97;5095517;28;20047;-80
2021/11/09 12:40:56;;;;;;;0.30;0.30;;;;;;;9.18;100.00;102022.03;5091916;28;20066;-80
2021/11/09 12:43:48;;;;;;;0.20;0.20;;;;;;;9.19;100.00;102014.69;5090595;28;20059;-80
2021/11/09 12:46:28;;;;;;;0.22;0.22;;;;;;;9.16;100.00;102020.59;5097786;28;20059;-78
2021/11/09 12:49:00;;;;;;;0.20;0.20;;;;;;;9.25;100.00;102007.47;5095640;28;20047;-79
2021/11/09 12:51:37;;;;;;;0.20;0.20;;;;;;;9.16;100.00;102018.72;5095878;28;20152;-80
2021/11/09 12:54:14;;;;;;;0.20;0.20;;;;;;;9.06;100.00;102006.78;5089009;28;20059;-80
2021/11/09 12:56:51;;;;;;;0.20;0.20;;;;;;;9.15;100.00;102022.47;5089993;28;20439;-82
2021/11/09 12:59:29;;;;;;;0.30;0.30;;;;;;;9.18;100.00;102023.91;5095644;28;20056;-77
2021/11/09 13:02:12;;;;;;;0.20;0.20;;;;;;;9.18;100.00;102019.31;5093257;28;20048;-80
2021/11/09 13:04:49;;;;;;;0.22;0.22;;;;;;;9.14;100.00;102012.69;5096569;28;20578;-80
2021/11/09 13:07:29;;;;;;;0.30;0.30;;;;;;;9.06;100.00;102004.91;5095822;28;20411;-80
2021/11/09 13:10:11;;;;;;;0.30;0.30;;;;;;;9.12;100.00;102003.13;5099331;28;20062;-79
2021/11/09 13:12:45;;;;;;;0.30;0.30;;;;;;;9.13;100.00;101999.38;5097119;28;20074;-79
2021/11/09 13:15:21;;;;;;;0.30;0.30;;;;;;;9.09;100.00;101988.13;5100644;28;20070;-79
2021/11/09 13:18:03;;;;;;;0.20;0.20;;;;;;;9.05;100.00;101991.56;5096797;28;20503;-78
2021/11/09 13:20:36;;;;;;;0.20;0.20;;;;;;;9.08;100.00;101989.19;5097985;28;20054;-78
2021/11/09 13:23:08;;;;;;;0.22;0.22;;;;;;;9.19;100.00;101988.34;5091933;28;20074;-78
2021/11/09 13:25:48;;;;;;;0.20;0.20;;;;;;;9.24;100.00;101984.09;5090246;28;20515;-80
2021/11/09 13:28:19;;;;;;;0.30;0.30;;;;;;;9.21;100.00;101993.56;5087883;28;20419;-80
2021/11/09 13:30:56;;;;;;;0.20;0.20;;;;;;;9.21;100.00;101984.56;5087380;27;20059;-79
2021/11/09 13:33:26;;;;;;;0.30;0.30;;;;;;;9.14;100.00;101993.69;5090069;28;20059;-78
2021/11/09 13:35:56;;;;;;;0.25;0.25;;;;;;;9.14;100.00;101996.41;5091272;28;20047;-78
2021/11/09 13:38:26;;;;;;;0.20;0.20;;;;;;;8.96;100.00;101986.50;5091851;28;20044;-78
2021/11/09 13:41:05;;;;;;;0.30;0.30;;;;;;;8.93;100.00;101992.38;5095033;28;20066;-78
2021/11/09 13:43:41;;;;;;;0.30;0.30;;;;;;;8.92;100.00;101985.31;5095461;28;20265;-79